Time;durP1;ratioP1;P1;durP2;ratioP2;P2;SDS_P1;SDS_P2;PMS_P1;PMS_P2;Temp;Humidity;BMP_temperature;BMP_pressure;BME280_temperature;BME280_humidity;BME280_pressure;Samples;Min_cycle;Max_cycle;Signal;HPM_P1;HPM_P2
2021/09/07 00:00:46;;;;;;;5.07;1.73;;;17.30;99.90;;;;;;5013604;28;20196;-74
2021/09/07 00:03:12;;;;;;;2.10;2.00;;;17.30;99.90;;;;;;5013500;28;20172;-74
2021/09/07 00:05:38;;;;;;;1.60;1.30;;;17.30;99.90;;;;;;5013310;28;20222;-74
2021/09/07 00:08:03;;;;;;;6.77;1.63;;;17.20;99.90;;;;;;5014041;28;20210;-76
2021/09/07 00:10:29;;;;;;;0.90;0.70;;;17.20;99.90;;;;;;5013864;28;20558;-75
2021/09/07 00:12:55;;;;;;;2.07;1.43;;;17.10;99.90;;;;;;5013381;28;20169;-76
2021/09/07 00:15:21;;;;;;;1.47;1.37;;;17.10;99.90;;;;;;5011916;28;20168;-76
2021/09/07 00:17:47;;;;;;;1.40;1.30;;;17.10;99.90;;;;;;5013243;28;20176;-75
2021/09/07 00:20:14;;;;;;;2.70;1.73;;;17.10;99.90;;;;;;5012846;28;20796;-76
2021/09/07 00:22:42;;;;;;;3.20;1.57;;;17.00;99.90;;;;;;5012047;28;20453;-76
2021/09/07 00:25:08;;;;;;;1.70;1.60;;;17.00;99.90;;;;;;5013181;28;20415;-76
2021/09/07 00:27:34;;;;;;;1.67;0.93;;;17.00;99.90;;;;;;5013262;28;20803;-76
2021/09/07 00:30:00;;;;;;;7.63;2.57;;;17.00;99.90;;;;;;5013324;28;20423;-75
2021/09/07 00:32:25;;;;;;;1.03;0.93;;;17.00;99.90;;;;;;5013095;28;20176;-75
2021/09/07 00:34:51;;;;;;;1.83;1.33;;;16.90;99.90;;;;;;5012997;28;20656;-76
2021/09/07 00:37:17;;;;;;;1.00;0.70;;;16.90;99.90;;;;;;5012638;28;20203;-75
2021/09/07 00:39:43;;;;;;;2.50;1.53;;;16.90;99.90;;;;;;5012928;28;20203;-75
2021/09/07 00:42:08;;;;;;;4.80;1.83;;;16.90;99.90;;;;;;5012750;28;20190;-75
2021/09/07 00:44:34;;;;;;;1.00;0.83;;;16.90;99.90;;;;;;5013430;28;20174;-76
2021/09/07 00:47:04;;;;;;;1.23;1.13;;;16.90;99.90;;;;;;5012735;28;20183;-76
2021/09/07 00:49:30;;;;;;;3.10;2.57;;;16.90;99.90;;;;;;5012719;28;20208;-76
2021/09/07 00:51:56;;;;;;;2.37;1.70;;;16.90;99.90;;;;;;5011587;28;20481;-76
2021/09/07 00:54:27;;;;;;;2.07;1.10;;;17.00;99.90;;;;;;5012674;28;20415;-76
2021/09/07 00:56:54;;;;;;;4.50;2.07;;;17.00;99.90;;;;;;5011057;28;20928;-75
2021/09/07 00:59:21;;;;;;;3.10;2.90;;;17.00;99.90;;;;;;5012555;28;20423;-76
2021/09/07 01:01:48;;;;;;;1.13;1.03;;;17.00;99.90;;;;;;5013402;28;20453;-74
2021/09/07 01:04:13;;;;;;;1.27;1.03;;;17.00;99.90;;;;;;5013607;28;20879;-76
2021/09/07 01:06:39;;;;;;;1.20;1.10;;;17.00;99.90;;;;;;5012081;28;20450;-76
2021/09/07 01:09:06;;;;;;;3.33;0.80;;;17.00;99.90;;;;;;5011033;28;20231;-75
2021/09/07 01:11:32;;;;;;;1.20;0.77;;;17.10;99.90;;;;;;5011239;28;20180;-74
2021/09/07 01:13:58;;;;;;;1.30;1.00;;;17.10;99.90;;;;;;5012399;28;20407;-76
2021/09/07 01:16:23;;;;;;;3.20;0.77;;;17.00;99.90;;;;;;5012579;28;20249;-75
2021/09/07 01:18:49;;;;;;;1.73;0.97;;;17.00;99.90;;;;;;5012767;28;20183;-76
2021/09/07 01:21:16;;;;;;;1.90;1.47;;;17.00;99.90;;;;;;5014110;28;20412;-76
2021/09/07 01:23:46;;;;;;;1.37;1.27;;;17.00;99.90;;;;;;5013898;28;20299;-76
2021/09/07 01:26:18;;;;;;;1.20;0.63;;;17.00;99.90;;;;;;5012838;28;20403;-76
2021/09/07 01:28:45;;;;;;;3.50;1.60;;;17.00;99.90;;;;;;5012201;28;20458;-76
2021/09/07 01:31:12;;;;;;;2.13;1.40;;;17.00;99.90;;;;;;5012216;28;20555;-76
2021/09/07 01:33:38;;;;;;;1.07;0.97;;;17.00;99.90;;;;;;5012265;28;20399;-75
2021/09/07 01:36:05;;;;;;;1.93;1.73;;;16.90;99.90;;;;;;5012520;28;20403;-76
2021/09/07 01:38:31;;;;;;;0.93;0.83;;;16.90;99.90;;;;;;5012719;28;20407;-76
2021/09/07 01:40:58;;;;;;;1.43;1.33;;;16.90;99.90;;;;;;5014409;28;20403;-76
2021/09/07 01:43:24;;;;;;;5.03;1.47;;;16.90;99.90;;;;;;5016508;28;20398;-76
2021/09/07 01:45:52;;;;;;;1.17;1.07;;;16.80;99.90;;;;;;5017093;28;20765;-77
2021/09/07 01:48:19;;;;;;;0.87;0.73;;;16.80;99.90;;;;;;5017789;28;20443;-76
2021/09/07 01:50:45;;;;;;;1.80;1.70;;;16.70;99.90;;;;;;5014726;28;20431;-76
2021/09/07 01:53:11;;;;;;;0.80;0.80;;;16.70;99.90;;;;;;5016039;28;20705;-76
2021/09/07 01:55:36;;;;;;;1.70;1.60;;;16.70;99.90;;;;;;5015573;28;20518;-75
2021/09/07 01:58:03;;;;;;;1.23;1.13;;;16.70;99.90;;;;;;5015984;28;20239;-75
2021/09/07 02:00:29;;;;;;;4.40;1.53;;;16.70;99.90;;;;;;5015776;28;20192;-76
2021/09/07 02:02:55;;;;;;;4.37;1.83;;;16.70;99.90;;;;;;5016991;28;20465;-75
2021/09/07 02:05:20;;;;;;;3.07;1.33;;;16.70;99.90;;;;;;5014173;28;20525;-75
2021/09/07 02:07:46;;;;;;;0.80;0.60;;;16.70;99.90;;;;;;5015720;28;20176;-75
2021/09/07 02:10:12;;;;;;;1.97;1.83;;;16.60;99.90;;;;;;5015674;28;20268;-75
2021/09/07 02:12:38;;;;;;;3.50;2.23;;;16.60;99.90;;;;;;5015656;28;20633;-75
2021/09/07 02:15:04;;;;;;;2.03;1.73;;;16.50;99.90;;;;;;5014174;28;20549;-76
2021/09/07 02:17:30;;;;;;;2.03;1.93;;;16.50;99.90;;;;;;5015899;28;20505;-76
2021/09/07 02:19:56;;;;;;;0.90;0.90;;;16.50;99.90;;;;;;5015385;28;20459;-76
2021/09/07 02:22:22;;;;;;;1.80;0.90;;;16.50;99.90;;;;;;5015559;28;20498;-76
2021/09/07 02:24:47;;;;;;;1.73;1.63;;;16.50;99.90;;;;;;5015429;28;20175;-75
2021/09/07 02:27:13;;;;;;;1.00;0.90;;;16.40;99.90;;;;;;5015317;28;20431;-74
2021/09/07 02:29:39;;;;;;;4.00;2.00;;;16.40;99.90;;;;;;5015142;28;20678;-75
2021/09/07 02:32:05;;;;;;;1.33;1.23;;;16.30;99.90;;;;;;5015320;28;20192;-76
2021/09/07 02:34:30;;;;;;;2.00;1.57;;;16.30;99.90;;;;;;5014151;28;20211;-76
2021/09/07 02:36:56;;;;;;;2.23;1.43;;;16.20;99.90;;;;;;5015075;28;20435;-76
2021/09/07 02:39:22;;;;;;;1.87;1.10;;;16.20;99.90;;;;;;5015345;28;20188;-76
2021/09/07 02:41:47;;;;;;;2.27;2.10;;;16.10;99.90;;;;;;5015814;28;20168;-75
2021/09/07 02:44:13;;;;;;;1.00;0.80;;;16.10;99.90;;;;;;5015122;28;20192;-76
2021/09/07 02:46:38;;;;;;;7.87;3.27;;;16.00;99.90;;;;;;5013527;28;20759;-76
2021/09/07 02:49:04;;;;;;;1.83;1.53;;;16.00;99.90;;;;;;5014862;28;20208;-75
2021/09/07 02:51:29;;;;;;;1.73;1.53;;;16.00;99.90;;;;;;5014786;28;20222;-75
2021/09/07 02:53:55;;;;;;;2.43;1.53;;;16.00;99.90;;;;;;5013740;28;20669;-75
2021/09/07 02:56:21;;;;;;;1.27;1.17;;;16.00;99.90;;;;;;5014532;28;20180;-75
2021/09/07 02:58:46;;;;;;;1.13;1.03;;;15.90;99.90;;;;;;5013446;28;20192;-75
2021/09/07 03:01:13;;;;;;;2.93;1.67;;;16.00;99.90;;;;;;5013626;28;20202;-75
2021/09/07 03:03:38;;;;;;;2.70;1.10;;;15.90;99.90;;;;;;5014620;28;20501;-75
2021/09/07 03:06:04;;;;;;;1.57;1.10;;;15.90;99.90;;;;;;5014461;28;20219;-77
2021/09/07 03:08:31;;;;;;;2.40;0.90;;;15.90;99.90;;;;;;5014552;28;20204;-77
2021/09/07 03:10:57;;;;;;;3.23;2.53;;;15.90;99.90;;;;;;5014760;28;20405;-76
2021/09/07 03:13:23;;;;;;;2.90;2.10;;;15.90;99.90;;;;;;5014591;28;20461;-76
2021/09/07 03:15:48;;;;;;;1.07;0.97;;;15.90;99.90;;;;;;5014133;28;20175;-76
2021/09/07 03:18:14;;;;;;;0.90;0.60;;;15.90;99.90;;;;;;5015080;28;20200;-76
2021/09/07 03:20:40;;;;;;;1.83;1.63;;;15.90;99.90;;;;;;5015573;28;20695;-76
2021/09/07 03:23:06;;;;;;;0.80;0.70;;;15.80;99.90;;;;;;5015775;28;20411;-76
2021/09/07 03:25:31;;;;;;;4.43;1.50;;;15.90;99.90;;;;;;5013821;28;20461;-76
2021/09/07 03:27:57;;;;;;;2.40;1.73;;;15.90;99.90;;;;;;5014179;28;20674;-76
2021/09/07 03:30:23;;;;;;;2.03;1.87;;;15.90;99.90;;;;;;5015489;28;20188;-76
2021/09/07 03:32:49;;;;;;;2.10;1.70;;;15.90;99.90;;;;;;5015354;28;20415;-75
2021/09/07 03:35:15;;;;;;;0.83;0.83;;;15.80;99.90;;;;;;5013824;28;20465;-75
2021/09/07 03:37:41;;;;;;;1.30;1.20;;;15.80;99.90;;;;;;5014315;28;20762;-75
2021/09/07 03:40:07;;;;;;;1.97;1.87;;;15.80;99.90;;;;;;5012682;28;20423;-74
2021/09/07 03:42:34;;;;;;;1.57;1.47;;;15.80;99.90;;;;;;5013998;28;20166;-75
2021/09/07 03:45:05;;;;;;;1.00;0.90;;;15.70;99.90;;;;;;5013786;28;20412;-74
2021/09/07 03:47:30;;;;;;;1.23;0.90;;;15.70;99.90;;;;;;5013937;28;20418;-75
2021/09/07 03:49:56;;;;;;;1.43;1.33;;;15.70;99.90;;;;;;5013738;28;20455;-75
2021/09/07 03:52:22;;;;;;;0.90;0.90;;;15.70;99.90;;;;;;5013848;28;20221;-75
2021/09/07 03:54:47;;;;;;;1.93;1.40;;;15.60;99.90;;;;;;5012205;28;20683;-75
2021/09/07 03:57:13;;;;;;;1.80;1.70;;;15.60;99.90;;;;;;5013670;28;20214;-75
2021/09/07 03:59:38;;;;;;;8.43;1.83;;;15.60;99.90;;;;;;5012299;28;20191;-75
2021/09/07 04:02:04;;;;;;;1.83;1.33;;;15.60;99.90;;;;;;5012832;28;20549;-76
2021/09/07 04:04:30;;;;;;;1.97;1.60;;;15.50;99.90;;;;;;5014244;28;20172;-76
2021/09/07 04:06:56;;;;;;;1.67;1.57;;;15.50;99.90;;;;;;5014317;28;20299;-76
2021/09/07 04:09:22;;;;;;;2.90;2.00;;;15.50;99.90;;;;;;5012692;28;20696;-76
2021/09/07 04:11:48;;;;;;;1.53;1.43;;;15.50;99.90;;;;;;5013529;28;20404;-74
2021/09/07 04:14:13;;;;;;;1.20;1.10;;;15.50;99.90;;;;;;5013436;28;20645;-76
2021/09/07 04:16:39;;;;;;;6.83;2.00;;;15.60;99.90;;;;;;5011948;28;20247;-75
2021/09/07 04:19:04;;;;;;;4.67;3.03;;;15.50;99.90;;;;;;5013170;28;20270;-75
2021/09/07 04:21:30;;;;;;;3.63;1.33;;;15.50;99.90;;;;;;5011948;28;20667;-76
2021/09/07 04:23:56;;;;;;;1.43;1.33;;;15.50;99.90;;;;;;5012090;28;20204;-75
2021/09/07 04:26:21;;;;;;;1.57;1.47;;;15.50;99.90;;;;;;5011670;28;20569;-75
2021/09/07 04:28:47;;;;;;;3.00;2.80;;;15.50;99.90;;;;;;5013169;28;20195;-76
2021/09/07 04:31:12;;;;;;;2.40;1.67;;;15.50;99.90;;;;;;5013190;28;20219;-76
2021/09/07 04:33:38;;;;;;;1.67;1.57;;;15.50;99.90;;;;;;5013061;28;20256;-75
2021/09/07 04:36:03;;;;;;;3.30;2.97;;;15.50;99.90;;;;;;5012697;28;20179;-75
2021/09/07 04:38:29;;;;;;;0.80;0.70;;;15.50;99.90;;;;;;5011582;28;20186;-75
2021/09/07 04:40:55;;;;;;;3.70;1.97;;;15.50;99.90;;;;;;5012963;28;20165;-76
2021/09/07 04:43:20;;;;;;;4.33;4.13;;;15.50;99.90;;;;;;5012873;28;20167;-76
2021/09/07 04:45:46;;;;;;;1.57;1.33;;;15.60;99.90;;;;;;5012724;28;20773;-76
2021/09/07 04:48:11;;;;;;;1.27;1.17;;;15.60;99.90;;;;;;5013881;28;20199;-76
2021/09/07 04:50:38;;;;;;;3.77;2.60;;;15.70;99.90;;;;;;5013694;28;20226;-76
2021/09/07 04:53:04;;;;;;;3.53;2.53;;;15.70;99.90;;;;;;5012675;28;20172;-76
2021/09/07 04:55:29;;;;;;;1.47;1.00;;;15.70;99.90;;;;;;5013729;28;20488;-76
2021/09/07 04:57:55;;;;;;;2.60;1.40;;;15.70;99.90;;;;;;5013997;28;20225;-76
2021/09/07 05:00:21;;;;;;;2.50;1.47;;;15.70;99.90;;;;;;5012869;28;20267;-76
2021/09/07 05:02:46;;;;;;;1.70;1.60;;;15.80;99.90;;;;;;5012722;28;20176;-75
2021/09/07 05:05:12;;;;;;;1.50;1.13;;;15.70;99.90;;;;;;5012291;28;20224;-75
2021/09/07 05:07:37;;;;;;;1.17;0.93;;;15.70;99.90;;;;;;5013499;28;20254;-76
2021/09/07 05:10:04;;;;;;;2.33;1.10;;;15.70;99.90;;;;;;5013139;28;20227;-75
2021/09/07 05:12:29;;;;;;;3.23;3.03;;;15.70;99.90;;;;;;5012331;28;20551;-74
2021/09/07 05:14:55;;;;;;;1.13;1.03;;;15.80;99.90;;;;;;5011293;28;20403;-75
2021/09/07 05:17:20;;;;;;;3.53;3.07;;;15.80;99.90;;;;;;5013437;28;20179;-76
2021/09/07 05:19:46;;;;;;;0.97;0.77;;;15.70;99.90;;;;;;5013698;28;20300;-76
2021/09/07 05:22:12;;;;;;;1.23;1.13;;;15.70;99.90;;;;;;5012892;28;20175;-75
2021/09/07 05:24:37;;;;;;;1.00;0.77;;;15.80;99.90;;;;;;5010732;28;20176;-74
2021/09/07 05:27:03;;;;;;;4.77;2.27;;;15.80;99.90;;;;;;5011941;28;20233;-75
2021/09/07 05:29:29;;;;;;;1.37;1.27;;;15.90;99.90;;;;;;5011103;28;20712;-76
2021/09/07 05:31:54;;;;;;;3.87;1.67;;;15.90;99.90;;;;;;5013474;28;20415;-76
2021/09/07 05:34:20;;;;;;;1.73;1.63;;;16.00;99.90;;;;;;5012368;28;20251;-76
2021/09/07 05:36:45;;;;;;;2.00;1.80;;;16.00;99.90;;;;;;5012302;28;20186;-76
2021/09/07 05:39:11;;;;;;;4.23;1.67;;;16.10;99.90;;;;;;5012249;28;20192;-75
2021/09/07 05:41:36;;;;;;;3.77;1.20;;;16.10;99.90;;;;;;5012315;28;20165;-76
2021/09/07 05:44:02;;;;;;;4.13;2.50;;;16.20;99.90;;;;;;5012194;28;20175;-77
2021/09/07 05:46:27;;;;;;;0.90;0.90;;;16.20;99.90;;;;;;5011553;28;20172;-76
2021/09/07 05:48:53;;;;;;;2.63;2.33;;;16.30;99.90;;;;;;5011955;28;20200;-75
2021/09/07 05:51:19;;;;;;;2.27;1.90;;;16.40;99.90;;;;;;5012501;28;20176;-76
2021/09/07 05:53:44;;;;;;;1.93;1.80;;;16.40;99.90;;;;;;5012062;28;20172;-76
2021/09/07 05:56:11;;;;;;;3.60;2.30;;;16.40;99.90;;;;;;5011786;28;20180;-76
2021/09/07 05:58:39;;;;;;;1.30;1.20;;;16.50;99.90;;;;;;5010709;28;20180;-77
2021/09/07 06:01:05;;;;;;;1.13;1.07;;;16.60;99.90;;;;;;5012177;28;20920;-77
2021/09/07 06:03:31;;;;;;;1.63;1.53;;;16.60;99.90;;;;;;5012256;28;20469;-76
2021/09/07 06:05:56;;;;;;;2.73;2.53;;;16.70;99.90;;;;;;5011961;28;20168;-76
2021/09/07 06:08:23;;;;;;;0.90;0.80;;;16.80;99.90;;;;;;5011919;28;20196;-75
2021/09/07 06:10:48;;;;;;;0.90;0.73;;;16.80;99.90;;;;;;5011874;28;20184;-76
2021/09/07 06:13:14;;;;;;;3.10;2.80;;;16.90;99.90;;;;;;5011772;28;20410;-75
2021/09/07 06:15:41;;;;;;;5.00;3.27;;;16.90;99.90;;;;;;5011619;28;20169;-76
2021/09/07 06:18:07;;;;;;;1.03;0.93;;;16.80;99.90;;;;;;5011802;28;20167;-76
2021/09/07 06:20:33;;;;;;;2.00;1.80;;;16.90;99.90;;;;;;5011803;28;20475;-76
2021/09/07 06:22:58;;;;;;;2.47;2.27;;;16.90;99.90;;;;;;5011829;28;20505;-76
2021/09/07 06:25:24;;;;;;;2.53;1.53;;;16.90;99.90;;;;;;5011411;28;20645;-75
2021/09/07 06:27:50;;;;;;;1.40;1.30;;;17.00;99.90;;;;;;5014735;28;20183;-75
2021/09/07 06:30:16;;;;;;;2.57;2.37;;;17.00;99.90;;;;;;5015388;28;20184;-76
2021/09/07 06:32:42;;;;;;;3.93;2.60;;;17.10;99.90;;;;;;5014075;28;20950;-76
2021/09/07 06:35:08;;;;;;;2.33;2.13;;;17.20;99.90;;;;;;5015036;28;20165;-76
2021/09/07 06:37:34;;;;;;;6.87;4.30;;;17.30;99.90;;;;;;5015267;28;20279;-77
2021/09/07 06:40:00;;;;;;;4.00;3.70;;;17.20;99.90;;;;;;5015093;28;20450;-76
2021/09/07 06:42:25;;;;;;;5.17;2.57;;;17.30;99.90;;;;;;5015201;28;20164;-76
2021/09/07 06:44:51;;;;;;;2.30;1.40;;;17.30;99.90;;;;;;5014931;28;20414;-76
2021/09/07 06:47:16;;;;;;;3.07;1.80;;;17.40;99.90;;;;;;5015164;28;20166;-76
2021/09/07 06:49:42;;;;;;;5.77;2.63;;;17.50;99.90;;;;;;5015052;28;20246;-76
2021/09/07 06:52:07;;;;;;;1.27;1.10;;;17.60;99.90;;;;;;5015005;28;20176;-76
2021/09/07 06:54:33;;;;;;;3.70;1.93;;;17.70;99.90;;;;;;5014662;28;20192;-76
2021/09/07 06:56:59;;;;;;;6.30;4.70;;;17.70;99.90;;;;;;5014593;28;20200;-76
2021/09/07 06:59:24;;;;;;;4.70;2.17;;;17.80;99.90;;;;;;5014931;28;20196;-76
2021/09/07 07:01:50;;;;;;;6.93;4.30;;;17.90;99.90;;;;;;5013700;28;20230;-76
2021/09/07 07:04:15;;;;;;;2.80;1.77;;;18.00;99.90;;;;;;5013773;28;20176;-76
2021/09/07 07:06:41;;;;;;;2.13;1.27;;;18.10;99.90;;;;;;5014554;28;20180;-76
2021/09/07 07:09:06;;;;;;;3.00;2.80;;;18.20;99.90;;;;;;5013325;28;20208;-76
2021/09/07 07:11:32;;;;;;;8.93;2.10;;;18.30;99.90;;;;;;5014673;28;20203;-76
2021/09/07 07:13:57;;;;;;;9.27;2.33;;;18.30;99.90;;;;;;5014624;28;20515;-76
2021/09/07 07:16:23;;;;;;;3.87;3.57;;;18.40;99.90;;;;;;5014370;28;20172;-76
2021/09/07 07:18:48;;;;;;;7.13;3.23;;;18.50;99.90;;;;;;5014476;28;20210;-76
2021/09/07 07:21:14;;;;;;;9.93;3.10;;;18.60;99.90;;;;;;5014508;28;20251;-76
2021/09/07 07:23:40;;;;;;;2.80;2.60;;;18.70;99.90;;;;;;5014468;28;20207;-76
2021/09/07 07:26:05;;;;;;;3.10;2.43;;;18.70;99.90;;;;;;5014282;28;20184;-76
2021/09/07 07:28:31;;;;;;;4.10;1.87;;;18.80;99.90;;;;;;5014109;28;20199;-76
2021/09/07 07:30:57;;;;;;;2.10;1.90;;;18.80;99.90;;;;;;5019548;28;20534;-76
2021/09/07 07:33:22;;;;;;;4.60;2.80;;;18.90;99.90;;;;;;5017664;28;20184;-76
2021/09/07 07:35:48;;;;;;;3.90;2.20;;;18.90;99.90;;;;;;5022266;28;20588;-76
2021/09/07 07:38:13;;;;;;;3.57;3.20;;;18.90;99.90;;;;;;5015590;28;20188;-76
2021/09/07 07:40:39;;;;;;;2.77;2.07;;;19.00;99.90;;;;;;5014185;28;20218;-76
2021/09/07 07:43:05;;;;;;;6.70;4.53;;;19.10;99.90;;;;;;5014245;28;20513;-76
2021/09/07 07:45:30;;;;;;;3.80;1.87;;;19.20;99.90;;;;;;5012551;28;20259;-76
2021/09/07 07:47:56;;;;;;;3.60;3.20;;;19.20;99.90;;;;;;5013951;28;20195;-76
2021/09/07 07:50:22;;;;;;;2.07;1.87;;;19.30;99.90;;;;;;5012742;28;20565;-76
2021/09/07 07:52:47;;;;;;;4.47;4.00;;;19.50;99.90;;;;;;5013643;28;20161;-76
2021/09/07 07:55:13;;;;;;;5.00;3.13;;;19.50;99.90;;;;;;5013550;28;20270;-76
2021/09/07 07:57:38;;;;;;;6.20;5.53;;;19.70;99.90;;;;;;5013971;28;20173;-76
2021/09/07 08:00:05;;;;;;;4.67;4.37;;;19.70;99.90;;;;;;5012780;28;20673;-76
2021/09/07 08:02:30;;;;;;;4.90;2.90;;;19.80;99.90;;;;;;5014170;28;20292;-76
2021/09/07 08:04:56;;;;;;;2.60;2.40;;;20.00;99.90;;;;;;5013330;28;20438;-76
2021/09/07 08:07:22;;;;;;;4.53;3.80;;;20.10;99.90;;;;;;5013645;28;20255;-77
2021/09/07 08:09:47;;;;;;;3.00;1.70;;;20.30;99.90;;;;;;5013525;28;20250;-76
2021/09/07 08:12:16;;;;;;;4.93;4.43;;;20.30;99.90;;;;;;5013347;28;20168;-76
2021/09/07 08:14:42;;;;;;;3.60;3.17;;;20.50;99.90;;;;;;5013524;28;20211;-77
2021/09/07 08:17:08;;;;;;;3.33;2.13;;;20.60;99.90;;;;;;5013361;28;20404;-77
2021/09/07 08:19:33;;;;;;;5.97;4.50;;;20.60;99.90;;;;;;5012044;28;20219;-76
2021/09/07 08:21:59;;;;;;;6.40;4.40;;;20.60;99.90;;;;;;5013318;28;20592;-76
2021/09/07 08:24:24;;;;;;;3.00;2.80;;;20.80;99.90;;;;;;5013480;28;20191;-77
2021/09/07 08:26:50;;;;;;;8.40;2.30;;;21.00;99.90;;;;;;5012964;28;20218;-76
2021/09/07 08:29:15;;;;;;;1.93;1.83;;;21.10;99.90;;;;;;5013161;28;20748;-76
2021/09/07 08:31:41;;;;;;;6.30;3.53;;;21.30;99.90;;;;;;5013263;28;20546;-76
2021/09/07 08:34:07;;;;;;;6.73;5.47;;;21.50;99.90;;;;;;5011044;28;20183;-77
2021/09/07 08:36:32;;;;;;;3.67;3.30;;;21.60;99.90;;;;;;5013095;28;20299;-77
2021/09/07 08:38:58;;;;;;;4.03;3.03;;;21.80;99.90;;;;;;5012527;28;20203;-77
2021/09/07 08:41:23;;;;;;;3.43;3.20;;;21.90;99.90;;;;;;5011730;28;20187;-76
2021/09/07 08:43:50;;;;;;;3.20;2.80;;;22.00;99.90;;;;;;5013016;28;20222;-76
2021/09/07 08:46:17;;;;;;;3.03;2.33;;;22.20;99.90;;;;;;5012826;28;20196;-74
2021/09/07 08:48:44;;;;;;;3.03;2.83;;;22.50;99.90;;;;;;5012804;28;20451;-74
2021/09/07 08:51:10;;;;;;;5.67;4.33;;;22.60;99.90;;;;;;5012888;28;20442;-74
2021/09/07 08:53:36;;;;;;;5.93;5.43;;;22.90;99.90;;;;;;5012915;28;20404;-74
2021/09/07 08:56:05;;;;;;;5.13;4.73;;;23.00;99.90;;;;;;5011033;28;20237;-74
2021/09/07 08:58:30;;;;;;;4.83;1.90;;;23.20;99.90;;;;;;5012018;28;20172;-74
2021/09/07 09:00:56;;;;;;;6.00;5.23;;;23.50;99.90;;;;;;5012799;28;20414;-74
2021/09/07 09:03:21;;;;;;;3.23;2.93;;;23.70;99.90;;;;;;5012673;28;20199;-74
2021/09/07 09:05:53;;;;;;;7.30;6.53;;;24.00;99.90;;;;;;5012093;28;20168;-75
2021/09/07 09:08:19;;;;;;;2.90;2.70;;;24.20;99.90;;;;;;5012291;28;20393;-74
2021/09/07 09:10:46;;;;;;;4.50;3.40;;;24.40;99.90;;;;;;5012506;28;20435;-74
2021/09/07 09:13:16;;;;;;;5.87;3.20;;;24.70;99.90;;;;;;5012375;28;20506;-76
2021/09/07 09:16:04;;;;;;;7.13;4.00;;;24.80;99.90;;;;;;5012301;28;20908;-75
2021/09/07 09:18:35;;;;;;;3.60;2.60;;;25.10;99.90;;;;;;5012974;28;20403;-75
2021/09/07 09:21:38;;;;;;;5.87;2.80;;;25.40;99.90;;;;;;5012632;28;20548;-76
2021/09/07 09:24:19;;;;;;;4.73;3.37;;;25.70;99.90;;;;;;5012386;28;20414;-76
2021/09/07 09:26:54;;;;;;;4.07;3.40;;;25.50;99.90;;;;;;5012151;28;20936;-76
2021/09/07 09:29:25;;;;;;;6.10;2.83;;;26.00;99.90;;;;;;5012228;28;20887;-76
2021/09/07 09:31:56;;;;;;;6.03;3.70;;;26.40;99.90;;;;;;5012432;28;20840;-76
2021/09/07 09:34:23;;;;;;;6.97;4.77;;;26.80;99.90;;;;;;5012555;28;20494;-75
2021/09/07 09:37:04;;;;;;;2.27;2.17;;;27.30;99.90;;;;;;5010971;28;20407;-76
2021/09/07 09:39:46;;;;;;;10.60;3.00;;;27.80;99.90;;;;;;5012217;28;20450;-76
2021/09/07 09:42:24;;;;;;;14.33;7.63;;;28.60;99.90;;;;;;5012749;28;20438;-76
2021/09/07 09:45:04;;;;;;;4.53;4.13;;;29.00;99.90;;;;;;5012224;28;21181;-76
2021/09/07 09:47:42;;;;;;;5.90;4.00;;;29.40;99.90;;;;;;5011229;28;20562;-76
2021/09/07 09:50:10;;;;;;;7.20;5.33;;;29.80;99.90;;;;;;5011791;28;20454;-76
2021/09/07 09:52:38;;;;;;;5.90;2.13;;;29.90;99.90;;;;;;5011767;28;20518;-76
2021/09/07 09:55:05;;;;;;;5.07;3.70;;;30.50;99.90;;;;;;5011423;28;20562;-76
2021/09/07 09:57:33;;;;;;;3.70;2.70;;;30.90;99.90;;;;;;5012315;28;20408;-76
2021/09/07 10:00:00;;;;;;;4.07;2.60;;;31.10;99.70;;;;;;5012106;28;20430;-76
2021/09/07 10:02:28;;;;;;;5.43;4.97;;;31.40;98.30;;;;;;5014904;28;20403;-76
2021/09/07 10:04:54;;;;;;;8.30;3.70;;;31.50;96.60;;;;;;5015957;28;20411;-76
2021/09/07 10:07:21;;;;;;;6.63;4.63;;;31.70;95.40;;;;;;5016074;28;20407;-76
2021/09/07 10:09:48;;;;;;;6.17;5.57;;;31.80;94.80;;;;;;5016587;28;20582;-76
2021/09/07 10:12:29;;;;;;;5.40;3.93;;;32.10;93.40;;;;;;5015252;28;20413;-76
2021/09/07 10:15:05;;;;;;;5.50;3.97;;;32.60;93.80;;;;;;5015988;28;20919;-76
2021/09/07 10:17:46;;;;;;;4.80;2.90;;;33.00;93.00;;;;;;5016054;28;20801;-76
2021/09/07 10:20:22;;;;;;;8.47;4.30;;;33.30;91.40;;;;;;5014640;28;20439;-76
2021/09/07 10:25:45;;;;;;;2.97;1.97;;;33.50;80.50;;;;;;5015450;28;20402;-76
2021/09/07 10:28:12;;;;;;;3.17;2.87;;;33.60;83.20;;;;;;5015542;28;20509;-76
2021/09/07 10:31:06;;;;;;;3.83;3.37;;;33.80;81.80;;;;;;5014676;28;20435;-76
2021/09/07 10:33:34;;;;;;;7.00;3.50;;;33.30;72.30;;;;;;5010635;28;20457;-76
2021/09/07 10:36:04;;;;;;;2.30;2.10;;;33.30;73.00;;;;;;5015114;28;20402;-76
2021/09/07 10:38:40;;;;;;;2.47;2.10;;;33.70;75.00;;;;;;5015346;28;20407;-76
2021/09/07 10:41:07;;;;;;;4.23;2.77;;;34.00;74.90;;;;;;5015643;28;20430;-76
2021/09/07 10:44:17;;;;;;;3.20;2.80;;;34.40;72.60;;;;;;5015615;28;20818;-76
2021/09/07 10:47:00;;;;;;;2.60;1.67;;;34.80;71.60;;;;;;4993181;28;20455;-76
2021/09/07 10:49:40;;;;;;;5.83;4.27;;;35.10;67.90;;;;;;4993396;28;21063;-76
2021/09/07 10:52:12;;;;;;;4.43;4.00;;;35.30;69.00;;;;;;5002910;28;20414;-76
2021/09/07 10:55:09;;;;;;;2.17;1.97;;;35.60;68.00;;;;;;5015168;28;20451;-76
2021/09/07 10:57:35;;;;;;;2.43;2.23;;;35.80;60.90;;;;;;5015112;28;20411;-76
2021/09/07 11:00:13;;;;;;;4.13;3.10;;;35.90;61.30;;;;;;5013664;28;20436;-76
2021/09/07 11:02:44;;;;;;;3.93;2.50;;;35.80;59.60;;;;;;5015039;28;20176;-76
2021/09/07 11:05:41;;;;;;;4.10;2.97;;;35.70;58.30;;;;;;5013408;28;20795;-76
2021/09/07 11:08:17;;;;;;;2.07;1.70;;;35.60;55.90;;;;;;5015049;28;20438;-76
2021/09/07 11:10:44;;;;;;;4.90;3.57;;;35.90;58.60;;;;;;5015215;28;20473;-76
2021/09/07 11:13:17;;;;;;;2.27;2.07;;;36.00;52.30;;;;;;5013438;28;20400;-76
2021/09/07 11:15:43;;;;;;;3.33;2.67;;;36.10;53.60;;;;;;5014641;28;20465;-76
2021/09/07 11:18:15;;;;;;;2.03;1.93;;;36.40;53.30;;;;;;5014582;28;20908;-76
2021/09/07 11:20:49;;;;;;;2.63;2.43;;;36.30;52.00;;;;;;5013480;28;20482;-76
2021/09/07 11:23:14;;;;;;;2.67;2.17;;;36.60;54.30;;;;;;5014762;28;20402;-76
2021/09/07 11:25:42;;;;;;;2.93;2.40;;;36.80;53.90;;;;;;5014366;28;20912;-76
2021/09/07 11:28:10;;;;;;;4.63;2.47;;;36.70;50.80;;;;;;5014437;28;20520;-76
2021/09/07 11:30:39;;;;;;;2.70;2.30;;;36.60;52.10;;;;;;5014454;28;20830;-76
2021/09/07 11:33:10;;;;;;;2.10;1.90;;;36.70;52.50;;;;;;5014388;28;20407;-76
2021/09/07 11:35:47;;;;;;;23.43;3.57;;;36.70;51.90;;;;;;5014336;28;20399;-76
2021/09/07 11:38:16;;;;;;;2.07;1.83;;;36.90;52.80;;;;;;5013043;28;20429;-76
2021/09/07 11:40:42;;;;;;;2.43;2.23;;;36.90;51.20;;;;;;5012908;28;20446;-76
2021/09/07 11:43:08;;;;;;;2.30;1.77;;;36.90;50.30;;;;;;5014324;28;20414;-76
2021/09/07 11:45:34;;;;;;;4.67;2.10;;;37.00;51.10;;;;;;5013980;28;20912;-76
2021/09/07 11:48:02;;;;;;;1.80;1.70;;;36.90;51.70;;;;;;5014070;28;20743;-76
2021/09/07 11:50:33;;;;;;;2.60;2.10;;;36.90;49.30;;;;;;5013912;28;20489;-76
2021/09/07 11:53:01;;;;;;;3.97;2.47;;;36.60;51.70;;;;;;5013918;28;20404;-76
2021/09/07 11:55:45;;;;;;;3.70;3.40;;;36.70;51.60;;;;;;5013636;28;20449;-76
2021/09/07 11:58:29;;;;;;;1.93;1.83;;;36.90;51.90;;;;;;5013885;28;20399;-76
2021/09/07 12:01:00;;;;;;;2.40;2.20;;;37.10;51.90;;;;;;5013957;28;20387;-76
2021/09/07 12:03:38;;;;;;;4.07;2.87;;;37.30;51.70;;;;;;5013601;28;20904;-77
2021/09/07 12:06:05;;;;;;;1.90;1.70;;;37.20;50.60;;;;;;5013620;28;20445;-76
2021/09/07 12:08:49;;;;;;;2.97;2.60;;;36.90;48.50;;;;;;5013488;28;20442;-76
2021/09/07 12:11:21;;;;;;;2.10;1.90;;;36.60;49.80;;;;;;5015492;28;20413;-76
2021/09/07 12:14:20;;;;;;;3.10;2.37;;;36.80;50.10;;;;;;5015595;28;20769;-76
2021/09/07 12:16:56;;;;;;;1.93;1.83;;;36.90;51.90;;;;;;5014377;28;20378;-76
2021/09/07 12:19:47;;;;;;;3.77;1.87;;;36.80;50.60;;;;;;5015898;28;20975;-76
2021/09/07 12:22:20;;;;;;;3.70;2.90;;;36.90;51.30;;;;;;5011946;28;20419;-76
2021/09/07 12:25:06;;;;;;;2.43;2.10;;;36.70;50.00;;;;;;5011469;28;20415;-75
2021/09/07 12:27:53;;;;;;;2.50;2.10;;;36.50;48.90;;;;;;5013349;28;20403;-76
2021/09/07 12:30:21;;;;;;;2.80;2.47;;;36.40;49.60;;;;;;5013885;28;20948;-75
2021/09/07 12:32:59;;;;;;;2.20;2.03;;;36.40;50.20;;;;;;5011784;28;20415;-75
2021/09/07 12:35:51;;;;;;;2.53;2.33;;;36.40;49.80;;;;;;5012866;28;20764;-76
2021/09/07 12:38:20;;;;;;;8.33;3.93;;;36.50;50.30;;;;;;5010028;28;20423;-76
2021/09/07 12:40:48;;;;;;;3.43;3.13;;;36.50;49.80;;;;;;5012916;28;20798;-75
2021/09/07 12:43:17;;;;;;;6.33;5.73;;;36.40;49.40;;;;;;5011672;28;20411;-75
2021/09/07 12:45:45;;;;;;;1.93;1.47;;;36.40;49.80;;;;;;5012569;28;20407;-75
2021/09/07 12:48:11;;;;;;;1.67;1.57;;;36.60;50.10;;;;;;5012794;28;20403;-74
2021/09/07 12:50:36;;;;;;;1.37;1.27;;;36.40;47.80;;;;;;5012742;28;20514;-75
2021/09/07 12:53:05;;;;;;;2.50;2.30;;;36.10;48.30;;;;;;5012776;28;20435;-76